sensor_id;sensor_type;location;lat;lon;timestamp;P1;durP1;ratioP1;P2;durP2;ratioP2
8536;SDS011;4306;50.210;10.628;2023-05-16T00:02:21;7.68;;;5.70;;
8536;SDS011;4306;50.210;10.628;2023-05-16T00:04:48;8.30;;;6.50;;
8536;SDS011;4306;50.210;10.628;2023-05-16T00:07:16;8.48;;;5.60;;
8536;SDS011;4306;50.210;10.628;2023-05-16T00:09:43;9.27;;;6.20;;
8536;SDS011;4306;50.210;10.628;2023-05-16T00:12:10;10.57;;;6.57;;
8536;SDS011;4306;50.210;10.628;2023-05-16T00:14:37;7.30;;;5.40;;
8536;SDS011;4306;50.210;10.628;2023-05-16T00:17:04;6.63;;;5.60;;
8536;SDS011;4306;50.210;10.628;2023-05-16T00:19:35;8.18;;;5.53;;
8536;SDS011;4306;50.210;10.628;2023-05-16T00:22:03;7.07;;;6.15;;
8536;SDS011;4306;50.210;10.628;2023-05-16T00:24:31;6.65;;;5.95;;
8536;SDS011;4306;50.210;10.628;2023-05-16T00:26:59;6.70;;;5.38;;
8536;SDS011;4306;50.210;10.628;2023-05-16T00:29:25;7.82;;;5.95;;
8536;SDS011;4306;50.210;10.628;2023-05-16T00:31:52;7.05;;;6.28;;
8536;SDS011;4306;50.210;10.628;2023-05-16T00:34:20;8.77;;;5.97;;
8536;SDS011;4306;50.210;10.628;2023-05-16T00:36:47;8.20;;;6.25;;
8536;SDS011;4306;50.210;10.628;2023-05-16T00:39:14;7.45;;;5.85;;
8536;SDS011;4306;50.210;10.628;2023-05-16T00:41:43;7.47;;;5.60;;
8536;SDS011;4306;50.210;10.628;2023-05-16T00:44:10;7.28;;;6.38;;
8536;SDS011;4306;50.210;10.628;2023-05-16T00:46:37;9.35;;;5.85;;
8536;SDS011;4306;50.210;10.628;2023-05-16T00:49:04;7.15;;;6.07;;
8536;SDS011;4306;50.210;10.628;2023-05-16T00:51:31;8.10;;;6.22;;
8536;SDS011;4306;50.210;10.628;2023-05-16T00:53:58;8.15;;;6.57;;
8536;SDS011;4306;50.210;10.628;2023-05-16T00:56:25;8.43;;;6.55;;
8536;SDS011;4306;50.210;10.628;2023-05-16T00:58:54;9.60;;;7.10;;
8536;SDS011;4306;50.210;10.628;2023-05-16T01:01:22;8.50;;;6.57;;
8536;SDS011;4306;50.210;10.628;2023-05-16T01:03:51;7.28;;;6.18;;
8536;SDS011;4306;50.210;10.628;2023-05-16T01:06:19;7.95;;;6.65;;
8536;SDS011;4306;50.210;10.628;2023-05-16T01:08:45;10.35;;;6.63;;
8536;SDS011;4306;50.210;10.628;2023-05-16T01:11:20;10.18;;;6.75;;
8536;SDS011;4306;50.210;10.628;2023-05-16T01:13:53;10.82;;;7.00;;
8536;SDS011;4306;50.210;10.628;2023-05-16T01:16:29;9.35;;;6.63;;
8536;SDS011;4306;50.210;10.628;2023-05-16T01:19:04;7.35;;;6.13;;
8536;SDS011;4306;50.210;10.628;2023-05-16T01:21:48;8.27;;;6.07;;
8536;SDS011;4306;50.210;10.628;2023-05-16T01:24:22;8.02;;;5.97;;
8536;SDS011;4306;50.210;10.628;2023-05-16T01:26:59;6.97;;;5.55;;
8536;SDS011;4306;50.210;10.628;2023-05-16T01:29:30;10.35;;;6.00;;
8536;SDS011;4306;50.210;10.628;2023-05-16T01:31:57;8.13;;;6.35;;
8536;SDS011;4306;50.210;10.628;2023-05-16T01:34:24;8.20;;;5.63;;
8536;SDS011;4306;50.210;10.628;2023-05-16T01:36:53;7.47;;;5.82;;
8536;SDS011;4306;50.210;10.628;2023-05-16T01:39:26;7.18;;;5.63;;
8536;SDS011;4306;50.210;10.628;2023-05-16T01:42:02;8.10;;;6.28;;
8536;SDS011;4306;50.210;10.628;2023-05-16T01:44:32;8.02;;;6.10;;
8536;SDS011;4306;50.210;10.628;2023-05-16T01:47:06;8.68;;;6.05;;
8536;SDS011;4306;50.210;10.628;2023-05-16T01:49:37;8.57;;;6.70;;
8536;SDS011;4306;50.210;10.628;2023-05-16T01:52:10;7.68;;;6.88;;
8536;SDS011;4306;50.210;10.628;2023-05-16T01:54:41;8.52;;;6.57;;
8536;SDS011;4306;50.210;10.628;2023-05-16T01:57:12;9.93;;;7.40;;
8536;SDS011;4306;50.210;10.628;2023-05-16T01:59:39;8.70;;;6.93;;
8536;SDS011;4306;50.210;10.628;2023-05-16T02:02:07;13.63;;;7.38;;
8536;SDS011;4306;50.210;10.628;2023-05-16T02:04:34;13.75;;;10.20;;
8536;SDS011;4306;50.210;10.628;2023-05-16T02:07:01;11.20;;;8.40;;
8536;SDS011;4306;50.210;10.628;2023-05-16T02:09:28;9.02;;;6.50;;
8536;SDS011;4306;50.210;10.628;2023-05-16T02:11:55;8.90;;;5.95;;
8536;SDS011;4306;50.210;10.628;2023-05-16T02:14:24;7.60;;;5.90;;
8536;SDS011;4306;50.210;10.628;2023-05-16T02:16:51;9.50;;;7.45;;
8536;SDS011;4306;50.210;10.628;2023-05-16T02:19:17;13.55;;;7.35;;
8536;SDS011;4306;50.210;10.628;2023-05-16T02:21:44;10.35;;;6.95;;
8536;SDS011;4306;50.210;10.628;2023-05-16T02:24:11;8.63;;;7.05;;
8536;SDS011;4306;50.210;10.628;2023-05-16T02:26:38;9.82;;;7.82;;
8536;SDS011;4306;50.210;10.628;2023-05-16T02:29:05;9.73;;;7.05;;
8536;SDS011;4306;50.210;10.628;2023-05-16T02:31:33;10.65;;;7.78;;
8536;SDS011;4306;50.210;10.628;2023-05-16T02:34:00;9.52;;;8.02;;
8536;SDS011;4306;50.210;10.628;2023-05-16T02:36:27;10.25;;;8.13;;
8536;SDS011;4306;50.210;10.628;2023-05-16T02:38:54;10.32;;;8.20;;
8536;SDS011;4306;50.210;10.628;2023-05-16T02:41:21;8.68;;;7.47;;
8536;SDS011;4306;50.210;10.628;2023-05-16T02:43:48;9.45;;;8.05;;
8536;SDS011;4306;50.210;10.628;2023-05-16T02:46:19;10.82;;;8.85;;
8536;SDS011;4306;50.210;10.628;2023-05-16T02:48:48;8.18;;;6.97;;
8536;SDS011;4306;50.210;10.628;2023-05-16T02:51:15;10.23;;;8.55;;
8536;SDS011;4306;50.210;10.628;2023-05-16T02:53:42;9.27;;;8.02;;
8536;SDS011;4306;50.210;10.628;2023-05-16T02:56:09;13.77;;;9.20;;
8536;SDS011;4306;50.210;10.628;2023-05-16T02:58:36;11.85;;;10.07;;
8536;SDS011;4306;50.210;10.628;2023-05-16T03:01:03;12.13;;;9.68;;
8536;SDS011;4306;50.210;10.628;2023-05-16T03:03:30;13.18;;;10.85;;
8536;SDS011;4306;50.210;10.628;2023-05-16T03:06:00;14.45;;;10.93;;
8536;SDS011;4306;50.210;10.628;2023-05-16T03:08:27;15.68;;;9.85;;
8536;SDS011;4306;50.210;10.628;2023-05-16T03:10:54;13.55;;;10.63;;
8536;SDS011;4306;50.210;10.628;2023-05-16T03:13:21;13.63;;;10.88;;
8536;SDS011;4306;50.210;10.628;2023-05-16T03:15:48;13.27;;;10.40;;
8536;SDS011;4306;50.210;10.628;2023-05-16T03:18:15;14.18;;;11.10;;
8536;SDS011;4306;50.210;10.628;2023-05-16T03:20:42;12.63;;;11.00;;
8536;SDS011;4306;50.210;10.628;2023-05-16T03:23:10;14.38;;;11.35;;
8536;SDS011;4306;50.210;10.628;2023-05-16T03:25:37;16.00;;;12.32;;
8536;SDS011;4306;50.210;10.628;2023-05-16T03:28:04;13.75;;;11.38;;
8536;SDS011;4306;50.210;10.628;2023-05-16T03:30:32;13.32;;;11.23;;
8536;SDS011;4306;50.210;10.628;2023-05-16T03:32:59;14.07;;;11.65;;
8536;SDS011;4306;50.210;10.628;2023-05-16T03:35:26;15.15;;;11.63;;
8536;SDS011;4306;50.210;10.628;2023-05-16T03:37:53;12.70;;;11.10;;
8536;SDS011;4306;50.210;10.628;2023-05-16T03:40:21;16.55;;;12.27;;
8536;SDS011;4306;50.210;10.628;2023-05-16T03:42:48;13.98;;;11.45;;
8536;SDS011;4306;50.210;10.628;2023-05-16T03:45:15;14.90;;;12.40;;
8536;SDS011;4306;50.210;10.628;2023-05-16T03:47:42;15.60;;;12.13;;
8536;SDS011;4306;50.210;10.628;2023-05-16T03:50:09;15.93;;;12.05;;
8536;SDS011;4306;50.210;10.628;2023-05-16T03:52:36;15.77;;;11.75;;
8536;SDS011;4306;50.210;10.628;2023-05-16T03:55:03;13.50;;;11.60;;
8536;SDS011;4306;50.210;10.628;2023-05-16T03:57:32;16.15;;;12.57;;
8536;SDS011;4306;50.210;10.628;2023-05-16T03:59:59;16.48;;;11.75;;
8536;SDS011;4306;50.210;10.628;2023-05-16T04:02:27;16.65;;;12.43;;
8536;SDS011;4306;50.210;10.628;2023-05-16T04:04:54;15.63;;;12.80;;
8536;SDS011;4306;50.210;10.628;2023-05-16T04:07:21;16.75;;;13.63;;
8536;SDS011;4306;50.210;10.628;2023-05-16T04:09:48;17.95;;;13.15;;
8536;SDS011;4306;50.210;10.628;2023-05-16T04:12:14;15.68;;;12.55;;
8536;SDS011;4306;50.210;10.628;2023-05-16T04:14:43;16.63;;;13.18;;
8536;SDS011;4306;50.210;10.628;2023-05-16T04:17:09;16.52;;;13.90;;
8536;SDS011;4306;50.210;10.628;2023-05-16T04:19:36;19.33;;;13.90;;
8536;SDS011;4306;50.210;10.628;2023-05-16T04:22:03;15.52;;;13.13;;
8536;SDS011;4306;50.210;10.628;2023-05-16T04:24:31;17.50;;;14.15;;
8536;SDS011;4306;50.210;10.628;2023-05-16T04:26:58;17.63;;;13.95;;
8536;SDS011;4306;50.210;10.628;2023-05-16T04:29:26;16.27;;;13.93;;
8536;SDS011;4306;50.210;10.628;2023-05-16T04:31:54;16.27;;;13.50;;
8536;SDS011;4306;50.210;10.628;2023-05-16T04:34:21;17.33;;;14.15;;
8536;SDS011;4306;50.210;10.628;2023-05-16T04:36:51;17.92;;;14.15;;
8536;SDS011;4306;50.210;10.628;2023-05-16T04:39:18;16.65;;;13.25;;
8536;SDS011;4306;50.210;10.628;2023-05-16T04:41:45;15.70;;;13.75;;
8536;SDS011;4306;50.210;10.628;2023-05-16T04:44:12;18.73;;;15.10;;
8536;SDS011;4306;50.210;10.628;2023-05-16T04:46:39;16.65;;;13.57;;
8536;SDS011;4306;50.210;10.628;2023-05-16T04:49:08;16.05;;;13.25;;
8536;SDS011;4306;50.210;10.628;2023-05-16T04:51:35;16.33;;;13.48;;
8536;SDS011;4306;50.210;10.628;2023-05-16T04:54:02;19.27;;;13.85;;
8536;SDS011;4306;50.210;10.628;2023-05-16T04:56:29;17.17;;;13.43;;
8536;SDS011;4306;50.210;10.628;2023-05-16T04:58:56;17.73;;;13.88;;
8536;SDS011;4306;50.210;10.628;2023-05-16T05:01:23;19.55;;;14.23;;
8536;SDS011;4306;50.210;10.628;2023-05-16T05:03:49;16.33;;;12.88;;
8536;SDS011;4306;50.210;10.628;2023-05-16T05:06:17;17.20;;;13.20;;
8536;SDS011;4306;50.210;10.628;2023-05-16T05:08:44;17.38;;;12.95;;
8536;SDS011;4306;50.210;10.628;2023-05-16T05:11:11;17.58;;;14.07;;
8536;SDS011;4306;50.210;10.628;2023-05-16T05:13:38;14.85;;;11.90;;
8536;SDS011;4306;50.210;10.628;2023-05-16T05:16:05;16.73;;;12.73;;
8536;SDS011;4306;50.210;10.628;2023-05-16T05:18:32;17.05;;;13.73;;
8536;SDS011;4306;50.210;10.628;2023-05-16T05:21:00;17.13;;;13.15;;
8536;SDS011;4306;50.210;10.628;2023-05-16T05:23:28;15.27;;;13.52;;
8536;SDS011;4306;50.210;10.628;2023-05-16T05:25:55;17.90;;;13.38;;
8536;SDS011;4306;50.210;10.628;2023-05-16T05:28:22;16.08;;;12.55;;
8536;SDS011;4306;50.210;10.628;2023-05-16T05:30:49;15.23;;;12.15;;
8536;SDS011;4306;50.210;10.628;2023-05-16T05:33:16;13.90;;;11.50;;
8536;SDS011;4306;50.210;10.628;2023-05-16T05:35:43;15.98;;;10.63;;
8536;SDS011;4306;50.210;10.628;2023-05-16T05:38:10;15.75;;;11.70;;
8536;SDS011;4306;50.210;10.628;2023-05-16T05:40:38;14.40;;;11.32;;
8536;SDS011;4306;50.210;10.628;2023-05-16T05:43:05;15.00;;;11.30;;
8536;SDS011;4306;50.210;10.628;2023-05-16T05:45:32;15.18;;;11.65;;
8536;SDS011;4306;50.210;10.628;2023-05-16T05:47:59;14.07;;;10.70;;
8536;SDS011;4306;50.210;10.628;2023-05-16T05:50:26;15.55;;;11.07;;
8536;SDS011;4306;50.210;10.628;2023-05-16T05:52:53;13.27;;;11.25;;
8536;SDS011;4306;50.210;10.628;2023-05-16T05:55:20;13.43;;;10.32;;
8536;SDS011;4306;50.210;10.628;2023-05-16T05:57:49;12.13;;;10.02;;
8536;SDS011;4306;50.210;10.628;2023-05-16T06:00:16;12.95;;;10.65;;
8536;SDS011;4306;50.210;10.628;2023-05-16T06:02:43;11.70;;;10.38;;
8536;SDS011;4306;50.210;10.628;2023-05-16T06:05:09;12.70;;;10.85;;
8536;SDS011;4306;50.210;10.628;2023-05-16T06:07:36;11.90;;;9.63;;
8536;SDS011;4306;50.210;10.628;2023-05-16T06:10:04;11.02;;;8.90;;
8536;SDS011;4306;50.210;10.628;2023-05-16T06:12:32;12.40;;;9.27;;
8536;SDS011;4306;50.210;10.628;2023-05-16T06:15:00;10.50;;;9.20;;
8536;SDS011;4306;50.210;10.628;2023-05-16T06:17:27;11.40;;;9.07;;
8536;SDS011;4306;50.210;10.628;2023-05-16T06:19:54;11.70;;;9.30;;
8536;SDS011;4306;50.210;10.628;2023-05-16T06:22:21;11.48;;;8.95;;
8536;SDS011;4306;50.210;10.628;2023-05-16T06:24:48;11.98;;;9.75;;
8536;SDS011;4306;50.210;10.628;2023-05-16T06:27:15;11.05;;;8.55;;
8536;SDS011;4306;50.210;10.628;2023-05-16T06:29:41;11.15;;;8.98;;
8536;SDS011;4306;50.210;10.628;2023-05-16T06:32:10;12.13;;;9.38;;
8536;SDS011;4306;50.210;10.628;2023-05-16T06:34:37;10.55;;;8.45;;
8536;SDS011;4306;50.210;10.628;2023-05-16T06:37:04;13.63;;;9.23;;
8536;SDS011;4306;50.210;10.628;2023-05-16T06:39:30;11.20;;;8.50;;
8536;SDS011;4306;50.210;10.628;2023-05-16T06:41:57;12.40;;;9.55;;
8536;SDS011;4306;50.210;10.628;2023-05-16T06:44:24;10.27;;;8.43;;
8536;SDS011;4306;50.210;10.628;2023-05-16T06:46:51;11.45;;;9.02;;
8536;SDS011;4306;50.210;10.628;2023-05-16T06:49:20;12.43;;;9.27;;
8536;SDS011;4306;50.210;10.628;2023-05-16T06:51:46;13.50;;;11.00;;
8536;SDS011;4306;50.210;10.628;2023-05-16T06:54:13;16.05;;;11.02;;
8536;SDS011;4306;50.210;10.628;2023-05-16T06:56:40;9.88;;;8.57;;
8536;SDS011;4306;50.210;10.628;2023-05-16T06:59:07;10.23;;;8.30;;
8536;SDS011;4306;50.210;10.628;2023-05-16T07:01:34;9.75;;;7.90;;
8536;SDS011;4306;50.210;10.628;2023-05-16T07:04:01;9.35;;;7.38;;
8536;SDS011;4306;50.210;10.628;2023-05-16T07:06:29;7.88;;;7.07;;
8536;SDS011;4306;50.210;10.628;2023-05-16T07:08:56;10.35;;;7.57;;
8536;SDS011;4306;50.210;10.628;2023-05-16T07:11:23;9.07;;;7.50;;
8536;SDS011;4306;50.210;10.628;2023-05-16T07:13:50;10.30;;;7.68;;
8536;SDS011;4306;50.210;10.628;2023-05-16T07:16:17;8.63;;;6.97;;
8536;SDS011;4306;50.210;10.628;2023-05-16T07:18:43;9.18;;;7.38;;
8536;SDS011;4306;50.210;10.628;2023-05-16T07:21:10;11.52;;;7.13;;
8536;SDS011;4306;50.210;10.628;2023-05-16T07:23:38;10.82;;;7.75;;
8536;SDS011;4306;50.210;10.628;2023-05-16T07:26:05;9.27;;;7.75;;
8536;SDS011;4306;50.210;10.628;2023-05-16T07:28:32;8.25;;;6.90;;
8536;SDS011;4306;50.210;10.628;2023-05-16T07:30:59;8.15;;;6.65;;
8536;SDS011;4306;50.210;10.628;2023-05-16T07:33:26;7.60;;;6.80;;
8536;SDS011;4306;50.210;10.628;2023-05-16T07:35:53;9.45;;;6.97;;
8536;SDS011;4306;50.210;10.628;2023-05-16T07:38:20;8.98;;;6.80;;
8536;SDS011;4306;50.210;10.628;2023-05-16T07:40:48;9.70;;;7.30;;
8536;SDS011;4306;50.210;10.628;2023-05-16T07:43:15;11.88;;;6.78;;
8536;SDS011;4306;50.210;10.628;2023-05-16T07:45:42;9.35;;;7.20;;
8536;SDS011;4306;50.210;10.628;2023-05-16T07:48:09;8.18;;;6.28;;
8536;SDS011;4306;50.210;10.628;2023-05-16T07:50:35;10.20;;;7.15;;
8536;SDS011;4306;50.210;10.628;2023-05-16T07:53:02;8.90;;;6.72;;
8536;SDS011;4306;50.210;10.628;2023-05-16T07:55:29;8.00;;;6.47;;
8536;SDS011;4306;50.210;10.628;2023-05-16T07:57:58;8.82;;;6.88;;
8536;SDS011;4306;50.210;10.628;2023-05-16T08:00:25;8.07;;;5.88;;
8536;SDS011;4306;50.210;10.628;2023-05-16T08:02:52;7.47;;;5.88;;
8536;SDS011;4306;50.210;10.628;2023-05-16T08:05:19;9.10;;;5.93;;
8536;SDS011;4306;50.210;10.628;2023-05-16T08:07:46;6.95;;;5.90;;
8536;SDS011;4306;50.210;10.628;2023-05-16T08:10:13;7.45;;;5.93;;
8536;SDS011;4306;50.210;10.628;2023-05-16T08:12:40;7.28;;;5.80;;
8536;SDS011;4306;50.210;10.628;2023-05-16T08:15:09;9.57;;;6.28;;
8536;SDS011;4306;50.210;10.628;2023-05-16T08:17:36;9.07;;;6.50;;
8536;SDS011;4306;50.210;10.628;2023-05-16T08:20:03;7.55;;;5.93;;
8536;SDS011;4306;50.210;10.628;2023-05-16T08:22:31;8.95;;;6.25;;
8536;SDS011;4306;50.210;10.628;2023-05-16T08:24:58;8.15;;;6.32;;
8536;SDS011;4306;50.210;10.628;2023-05-16T08:27:25;9.75;;;6.18;;
8536;SDS011;4306;50.210;10.628;2023-05-16T08:29:52;8.18;;;5.88;;
8536;SDS011;4306;50.210;10.628;2023-05-16T08:32:21;7.93;;;6.25;;
8536;SDS011;4306;50.210;10.628;2023-05-16T08:34:48;8.63;;;6.43;;
8536;SDS011;4306;50.210;10.628;2023-05-16T08:37:15;14.07;;;8.85;;
8536;SDS011;4306;50.210;10.628;2023-05-16T08:39:41;8.68;;;6.40;;
8536;SDS011;4306;50.210;10.628;2023-05-16T08:42:08;8.45;;;6.47;;
8536;SDS011;4306;50.210;10.628;2023-05-16T08:44:35;8.85;;;6.90;;
8536;SDS011;4306;50.210;10.628;2023-05-16T08:47:04;8.40;;;6.70;;
8536;SDS011;4306;50.210;10.628;2023-05-16T08:49:40;12.23;;;7.28;;
8536;SDS011;4306;50.210;10.628;2023-05-16T08:52:09;10.18;;;7.20;;
8536;SDS011;4306;50.210;10.628;2023-05-16T08:54:36;11.30;;;8.65;;
8536;SDS011;4306;50.210;10.628;2023-05-16T08:57:04;9.77;;;7.43;;
8536;SDS011;4306;50.210;10.628;2023-05-16T08:59:32;11.38;;;7.22;;
8536;SDS011;4306;50.210;10.628;2023-05-16T09:02:00;9.18;;;7.50;;
8536;SDS011;4306;50.210;10.628;2023-05-16T09:04:27;10.63;;;7.78;;
8536;SDS011;4306;50.210;10.628;2023-05-16T09:06:56;9.63;;;7.60;;
8536;SDS011;4306;50.210;10.628;2023-05-16T09:09:23;10.15;;;8.63;;
8536;SDS011;4306;50.210;10.628;2023-05-16T09:11:50;9.52;;;7.38;;
8536;SDS011;4306;50.210;10.628;2023-05-16T09:14:17;12.20;;;7.03;;
8536;SDS011;4306;50.210;10.628;2023-05-16T09:16:44;9.07;;;6.97;;
8536;SDS011;4306;50.210;10.628;2023-05-16T09:19:31;7.35;;;5.97;;
8536;SDS011;4306;50.210;10.628;2023-05-16T09:22:03;11.77;;;7.60;;
8536;SDS011;4306;50.210;10.628;2023-05-16T09:24:31;14.60;;;8.80;;
8536;SDS011;4306;50.210;10.628;2023-05-16T09:27:06;10.05;;;5.55;;
8536;SDS011;4306;50.210;10.628;2023-05-16T09:29:34;10.40;;;6.20;;
8536;SDS011;4306;50.210;10.628;2023-05-16T09:32:03;7.70;;;4.85;;
8536;SDS011;4306;50.210;10.628;2023-05-16T09:34:36;7.82;;;4.53;;
8536;SDS011;4306;50.210;10.628;2023-05-16T09:37:05;9.18;;;5.20;;
8536;SDS011;4306;50.210;10.628;2023-05-16T09:39:34;7.55;;;4.80;;
8536;SDS011;4306;50.210;10.628;2023-05-16T09:42:01;7.53;;;4.55;;
8536;SDS011;4306;50.210;10.628;2023-05-16T09:44:28;5.70;;;4.15;;
8536;SDS011;4306;50.210;10.628;2023-05-16T09:46:57;5.72;;;4.20;;
8536;SDS011;4306;50.210;10.628;2023-05-16T09:49:24;6.65;;;3.70;;
8536;SDS011;4306;50.210;10.628;2023-05-16T09:51:51;6.90;;;4.00;;
8536;SDS011;4306;50.210;10.628;2023-05-16T09:54:29;4.60;;;3.47;;
8536;SDS011;4306;50.210;10.628;2023-05-16T09:56:57;6.15;;;4.05;;
8536;SDS011;4306;50.210;10.628;2023-05-16T09:59:24;5.72;;;3.20;;
8536;SDS011;4306;50.210;10.628;2023-05-16T10:01:53;5.40;;;3.88;;
8536;SDS011;4306;50.210;10.628;2023-05-16T10:04:22;4.47;;;3.10;;
8536;SDS011;4306;50.210;10.628;2023-05-16T10:06:49;6.03;;;3.22;;
8536;SDS011;4306;50.210;10.628;2023-05-16T10:09:17;4.00;;;2.78;;
8536;SDS011;4306;50.210;10.628;2023-05-16T10:11:45;4.45;;;3.05;;
8536;SDS011;4306;50.210;10.628;2023-05-16T10:14:15;4.07;;;2.60;;
8536;SDS011;4306;50.210;10.628;2023-05-16T10:16:45;3.92;;;2.63;;
8536;SDS011;4306;50.210;10.628;2023-05-16T10:19:14;3.92;;;2.70;;
8536;SDS011;4306;50.210;10.628;2023-05-16T10:21:43;4.40;;;2.70;;
8536;SDS011;4306;50.210;10.628;2023-05-16T10:24:13;4.63;;;2.55;;
8536;SDS011;4306;50.210;10.628;2023-05-16T10:26:49;4.03;;;2.63;;
8536;SDS011;4306;50.210;10.628;2023-05-16T10:29:17;5.20;;;2.97;;
8536;SDS011;4306;50.210;10.628;2023-05-16T10:31:45;4.47;;;3.92;;
8536;SDS011;4306;50.210;10.628;2023-05-16T10:34:14;4.10;;;2.55;;
8536;SDS011;4306;50.210;10.628;2023-05-16T10:36:42;3.70;;;2.17;;
8536;SDS011;4306;50.210;10.628;2023-05-16T10:39:10;3.38;;;2.30;;
8536;SDS011;4306;50.210;10.628;2023-05-16T10:41:39;4.40;;;2.35;;
8536;SDS011;4306;50.210;10.628;2023-05-16T10:44:12;3.80;;;2.40;;
8536;SDS011;4306;50.210;10.628;2023-05-16T10:46:40;3.75;;;2.00;;
8536;SDS011;4306;50.210;10.628;2023-05-16T10:49:20;3.88;;;2.20;;
8536;SDS011;4306;50.210;10.628;2023-05-16T10:52:01;4.97;;;2.30;;
8536;SDS011;4306;50.210;10.628;2023-05-16T10:54:33;3.88;;;2.42;;
8536;SDS011;4306;50.210;10.628;2023-05-16T10:57:05;3.45;;;2.13;;
8536;SDS011;4306;50.210;10.628;2023-05-16T10:59:42;3.67;;;2.28;;
8536;SDS011;4306;50.210;10.628;2023-05-16T11:02:26;6.60;;;2.20;;
8536;SDS011;4306;50.210;10.628;2023-05-16T11:04:54;3.17;;;2.10;;
8536;SDS011;4306;50.210;10.628;2023-05-16T11:07:23;3.40;;;1.92;;
8536;SDS011;4306;50.210;10.628;2023-05-16T11:10:01;2.95;;;1.80;;
8536;SDS011;4306;50.210;10.628;2023-05-16T11:12:43;3.10;;;1.90;;
8536;SDS011;4306;50.210;10.628;2023-05-16T11:15:19;3.45;;;1.98;;
8536;SDS011;4306;50.210;10.628;2023-05-16T11:17:47;5.57;;;3.17;;
8536;SDS011;4306;50.210;10.628;2023-05-16T11:20:24;2.97;;;1.90;;
8536;SDS011;4306;50.210;10.628;2023-05-16T11:22:51;2.03;;;1.50;;
8536;SDS011;4306;50.210;10.628;2023-05-16T11:25:46;2.33;;;1.50;;
8536;SDS011;4306;50.210;10.628;2023-05-16T11:28:15;2.63;;;1.88;;
8536;SDS011;4306;50.210;10.628;2023-05-16T11:30:46;5.47;;;2.97;;
8536;SDS011;4306;50.210;10.628;2023-05-16T11:33:14;3.10;;;1.95;;
8536;SDS011;4306;50.210;10.628;2023-05-16T11:35:41;3.10;;;2.10;;
8536;SDS011;4306;50.210;10.628;2023-05-16T11:38:12;2.65;;;1.85;;
8536;SDS011;4306;50.210;10.628;2023-05-16T11:40:43;3.33;;;2.10;;
8536;SDS011;4306;50.210;10.628;2023-05-16T11:43:10;3.28;;;1.90;;
8536;SDS011;4306;50.210;10.628;2023-05-16T11:45:43;4.57;;;2.10;;
8536;SDS011;4306;50.210;10.628;2023-05-16T11:48:12;5.68;;;1.92;;
8536;SDS011;4306;50.210;10.628;2023-05-16T11:50:40;2.97;;;1.92;;
8536;SDS011;4306;50.210;10.628;2023-05-16T11:53:07;3.53;;;2.17;;
8536;SDS011;4306;50.210;10.628;2023-05-16T11:55:33;2.60;;;2.10;;
8536;SDS011;4306;50.210;10.628;2023-05-16T11:58:01;3.00;;;2.10;;
8536;SDS011;4306;50.210;10.628;2023-05-16T12:00:28;3.50;;;2.22;;
8536;SDS011;4306;50.210;10.628;2023-05-16T12:02:59;2.17;;;1.70;;
8536;SDS011;4306;50.210;10.628;2023-05-16T12:05:30;3.65;;;2.15;;
8536;SDS011;4306;50.210;10.628;2023-05-16T12:07:57;3.40;;;1.95;;
8536;SDS011;4306;50.210;10.628;2023-05-16T12:10:24;3.53;;;1.80;;
8536;SDS011;4306;50.210;10.628;2023-05-16T12:12:51;2.30;;;1.75;;
8536;SDS011;4306;50.210;10.628;2023-05-16T12:15:19;3.13;;;1.83;;
8536;SDS011;4306;50.210;10.628;2023-05-16T12:17:46;2.97;;;1.90;;
8536;SDS011;4306;50.210;10.628;2023-05-16T12:20:13;2.50;;;1.63;;
8536;SDS011;4306;50.210;10.628;2023-05-16T12:22:43;3.10;;;1.90;;
8536;SDS011;4306;50.210;10.628;2023-05-16T12:25:25;3.08;;;1.80;;
8536;SDS011;4306;50.210;10.628;2023-05-16T12:27:53;2.47;;;1.45;;
8536;SDS011;4306;50.210;10.628;2023-05-16T12:30:21;3.83;;;1.70;;
8536;SDS011;4306;50.210;10.628;2023-05-16T12:32:54;3.60;;;1.70;;
8536;SDS011;4306;50.210;10.628;2023-05-16T12:35:21;4.05;;;1.83;;
8536;SDS011;4306;50.210;10.628;2023-05-16T12:37:50;6.22;;;4.97;;
8536;SDS011;4306;50.210;10.628;2023-05-16T12:40:17;3.28;;;1.98;;
8536;SDS011;4306;50.210;10.628;2023-05-16T12:42:45;5.38;;;2.03;;
8536;SDS011;4306;50.210;10.628;2023-05-16T12:45:16;3.70;;;1.88;;
8536;SDS011;4306;50.210;10.628;2023-05-16T12:47:43;4.95;;;2.90;;
8536;SDS011;4306;50.210;10.628;2023-05-16T12:50:11;3.75;;;1.73;;
8536;SDS011;4306;50.210;10.628;2023-05-16T12:52:45;3.08;;;1.88;;
8536;SDS011;4306;50.210;10.628;2023-05-16T12:55:15;3.25;;;2.10;;
8536;SDS011;4306;50.210;10.628;2023-05-16T12:57:42;2.90;;;1.52;;
8536;SDS011;4306;50.210;10.628;2023-05-16T13:00:11;3.13;;;2.50;;
8536;SDS011;4306;50.210;10.628;2023-05-16T13:02:40;3.72;;;1.90;;
8536;SDS011;4306;50.210;10.628;2023-05-16T13:05:07;2.50;;;1.50;;
8536;SDS011;4306;50.210;10.628;2023-05-16T13:07:34;3.78;;;2.10;;
8536;SDS011;4306;50.210;10.628;2023-05-16T13:10:01;3.45;;;1.63;;
8536;SDS011;4306;50.210;10.628;2023-05-16T13:12:31;4.30;;;1.65;;
8536;SDS011;4306;50.210;10.628;2023-05-16T13:14:58;2.53;;;1.73;;
8536;SDS011;4306;50.210;10.628;2023-05-16T13:17:25;2.53;;;1.52;;
8536;SDS011;4306;50.210;10.628;2023-05-16T13:19:54;4.03;;;1.67;;
8536;SDS011;4306;50.210;10.628;2023-05-16T13:22:21;3.72;;;2.10;;
8536;SDS011;4306;50.210;10.628;2023-05-16T13:24:47;3.00;;;1.83;;
8536;SDS011;4306;50.210;10.628;2023-05-16T13:27:15;3.33;;;1.80;;
8536;SDS011;4306;50.210;10.628;2023-05-16T13:29:43;4.05;;;1.80;;
8536;SDS011;4306;50.210;10.628;2023-05-16T13:32:10;4.75;;;2.10;;
8536;SDS011;4306;50.210;10.628;2023-05-16T13:34:37;4.88;;;1.90;;
8536;SDS011;4306;50.210;10.628;2023-05-16T13:37:04;4.43;;;1.90;;
8536;SDS011;4306;50.210;10.628;2023-05-16T13:39:31;4.05;;;1.83;;
8536;SDS011;4306;50.210;10.628;2023-05-16T13:41:58;7.25;;;3.72;;
8536;SDS011;4306;50.210;10.628;2023-05-16T13:44:27;3.53;;;1.77;;
8536;SDS011;4306;50.210;10.628;2023-05-16T13:46:56;6.68;;;1.90;;
8536;SDS011;4306;50.210;10.628;2023-05-16T13:49:22;5.05;;;1.80;;
8536;SDS011;4306;50.210;10.628;2023-05-16T13:51:49;5.47;;;2.00;;
8536;SDS011;4306;50.210;10.628;2023-05-16T13:54:17;4.30;;;1.50;;
8536;SDS011;4306;50.210;10.628;2023-05-16T13:56:45;4.25;;;1.60;;
8536;SDS011;4306;50.210;10.628;2023-05-16T13:59:12;6.22;;;1.70;;
8536;SDS011;4306;50.210;10.628;2023-05-16T14:01:40;4.95;;;1.65;;
8536;SDS011;4306;50.210;10.628;2023-05-16T14:04:08;4.28;;;1.60;;
8536;SDS011;4306;50.210;10.628;2023-05-16T14:06:35;4.82;;;1.45;;
8536;SDS011;4306;50.210;10.628;2023-05-16T14:09:02;4.07;;;1.90;;
8536;SDS011;4306;50.210;10.628;2023-05-16T14:11:29;6.88;;;1.50;;
8536;SDS011;4306;50.210;10.628;2023-05-16T14:13:56;5.68;;;1.30;;
8536;SDS011;4306;50.210;10.628;2023-05-16T14:16:24;2.65;;;1.25;;
8536;SDS011;4306;50.210;10.628;2023-05-16T14:18:52;8.32;;;1.70;;
8536;SDS011;4306;50.210;10.628;2023-05-16T14:21:20;4.80;;;1.42;;
8536;SDS011;4306;50.210;10.628;2023-05-16T14:23:47;4.18;;;1.70;;
8536;SDS011;4306;50.210;10.628;2023-05-16T14:26:14;4.80;;;1.50;;
8536;SDS011;4306;50.210;10.628;2023-05-16T14:28:42;5.45;;;2.08;;
8536;SDS011;4306;50.210;10.628;2023-05-16T14:31:09;3.88;;;1.73;;
8536;SDS011;4306;50.210;10.628;2023-05-16T14:33:36;7.93;;;2.05;;
8536;SDS011;4306;50.210;10.628;2023-05-16T14:36:05;4.63;;;1.70;;
8536;SDS011;4306;50.210;10.628;2023-05-16T14:38:34;8.25;;;1.80;;
8536;SDS011;4306;50.210;10.628;2023-05-16T14:41:01;4.43;;;1.45;;
8536;SDS011;4306;50.210;10.628;2023-05-16T14:43:28;4.53;;;1.40;;
8536;SDS011;4306;50.210;10.628;2023-05-16T14:45:55;4.55;;;1.55;;
8536;SDS011;4306;50.210;10.628;2023-05-16T14:48:21;5.18;;;1.20;;
8536;SDS011;4306;50.210;10.628;2023-05-16T14:50:48;4.38;;;1.23;;
8536;SDS011;4306;50.210;10.628;2023-05-16T14:53:16;3.38;;;1.13;;
8536;SDS011;4306;50.210;10.628;2023-05-16T14:55:44;7.20;;;1.50;;
8536;SDS011;4306;50.210;10.628;2023-05-16T14:58:11;3.58;;;1.60;;
8536;SDS011;4306;50.210;10.628;2023-05-16T15:00:37;3.40;;;1.20;;